Time;durP1;ratioP1;P1;durP2;ratioP2;P2;SDS_P1;SDS_P2;PMS_P1;PMS_P2;Temp;Humidity;BMP_temperature;BMP_pressure;BME280_temperature;BME280_humidity;BME280_pressure;Samples;Min_cycle;Max_cycle;Signal;HPM_P1;HPM_P2
2023/04/07 00:01:42;;;;;;;9.17;6.13;;;;;;;2.64;43.92;97487.06;6119705;28;20242;-88
2023/04/07 00:04:44;;;;;;;9.20;5.73;;;;;;;3.16;45.39;97577.72;6134588;28;20591;-88
2023/04/07 00:07:46;;;;;;;8.13;6.03;;;;;;;3.85;43.80;97688.97;6134394;28;20309;-88
2023/04/07 00:10:57;;;;;;;8.10;5.80;;;;;;;3.58;43.50;97640.63;6104084;28;20607;-88
2023/04/07 00:13:59;;;;;;;7.90;5.50;;;;;;;3.56;43.90;97631.34;6117377;28;20257;-89
2023/04/07 00:17:01;;;;;;;8.47;5.47;;;;;;;3.58;43.27;97624.84;6118235;28;20246;-88
2023/04/07 00:20:04;;;;;;;11.83;6.07;;;;;;;3.66;43.46;97659.94;6150174;28;20249;-88
2023/04/07 00:23:06;;;;;;;7.43;6.00;;;;;;;3.99;43.24;97688.97;6131336;28;20777;-89
2023/04/07 00:26:08;;;;;;;8.77;6.43;;;;;;;2.48;43.44;97467.16;6126123;28;20226;-88
2023/04/07 00:29:11;;;;;;;8.63;5.93;;;;;;;3.69;43.55;97644.50;6134947;28;20320;-89
2023/04/07 00:32:13;;;;;;;9.37;5.80;;;;;;;3.52;43.59;97640.63;6133824;28;20854;-89
2023/04/07 00:35:16;;;;;;;9.23;6.00;;;;;;;4.19;44.12;97725.94;6134325;28;20721;-89
2023/04/07 00:38:18;;;;;;;7.53;5.40;;;;;;;3.57;43.96;97646.94;6130957;28;20240;-89
2023/04/07 00:41:20;;;;;;;7.87;5.13;;;;;;;4.07;44.52;97733.63;6134056;28;20226;-88
2023/04/07 00:44:22;;;;;;;7.50;5.50;;;;;;;3.08;44.81;97566.34;6149472;28;20246;-88
2023/04/07 00:47:24;;;;;;;8.43;6.57;;;;;;;2.67;45.06;97524.28;6117962;28;20752;-89
2023/04/07 00:50:26;;;;;;;7.33;5.90;;;;;;;3.68;44.92;97673.69;6134131;28;20237;-89
2023/04/07 00:53:30;;;;;;;9.03;5.93;;;;;;;2.55;44.65;97486.41;6133754;28;20242;-88
2023/04/07 00:56:34;;;;;;;8.57;6.10;;;;;;;3.23;44.65;97599.63;6129847;28;20239;-88
2023/04/07 00:59:37;;;;;;;7.67;6.30;;;;;;;2.63;44.62;97498.59;6133835;28;20238;-88
2023/04/07 01:02:42;;;;;;;9.17;5.80;;;;;;;3.88;45.48;97701.72;6135563;28;20234;-88
2023/04/07 01:05:53;;;;;;;8.13;5.43;;;;;;;3.43;45.95;97636.53;6103438;28;20255;-88
2023/04/07 01:09:06;;;;;;;10.53;6.37;;;;;;;3.44;47.29;97636.34;6133654;28;20854;-89
2023/04/07 01:12:27;;;;;;;9.43;6.27;;;;;;;3.84;45.70;97694.41;6131024;28;20648;-88
2023/04/07 01:15:32;;;;;;;9.33;6.10;;;;;;;2.99;45.55;97550.94;6117545;28;20226;-88
2023/04/07 01:18:37;;;;;;;8.87;6.50;;;;;;;3.82;45.39;97697.25;6132128;28;20230;-89
2023/04/07 01:21:43;;;;;;;11.43;6.43;;;;;;;3.44;45.59;97640.78;6118444;28;20856;-89
2023/04/07 01:24:54;;;;;;;9.53;6.50;;;;;;;3.42;46.03;97630.47;6118231;28;20282;-89
2023/04/07 01:28:05;;;;;;;7.57;5.87;;;;;;;3.86;45.10;97685.31;6115817;28;20246;-89
2023/04/07 01:31:09;;;;;;;9.27;6.00;;;;;;;3.19;45.51;97596.56;6117581;28;20246;-88
2023/04/07 01:34:13;;;;;;;8.90;6.20;;;;;;;3.13;45.14;97599.97;6142987;28;20294;-88
2023/04/07 01:37:17;;;;;;;9.03;6.47;;;;;;;3.42;45.45;97629.66;6164466;28;20348;-88
2023/04/07 01:40:20;;;;;;;9.53;5.87;;;;;;;3.24;45.71;97617.03;6165774;28;20221;-88
2023/04/07 01:43:25;;;;;;;8.97;6.07;;;;;;;2.77;45.88;97531.81;6165578;28;20222;-88
2023/04/07 01:46:28;;;;;;;8.20;6.20;;;;;;;3.04;46.01;97572.19;6160908;28;20235;-88
2023/04/07 01:49:31;;;;;;;10.37;7.23;;;;;;;3.14;45.48;97598.16;6150659;28;20242;-89
2023/04/07 01:52:35;;;;;;;9.70;6.13;;;;;;;2.23;45.74;97470.28;6103585;28;20733;-88
2023/04/07 01:55:38;;;;;;;7.37;6.23;;;;;;;3.16;45.67;97594.34;6134134;28;20320;-89
2023/04/07 01:58:42;;;;;;;9.20;5.90;;;;;;;3.33;45.68;97621.13;6125860;28;20242;-88
2023/04/07 02:01:49;;;;;;;9.17;6.40;;;;;;;3.16;44.79;97585.63;6132768;28;20241;-89
2023/04/07 02:04:57;;;;;;;10.03;6.23;;;;;;;2.88;45.37;97536.53;6116508;28;20709;-88
2023/04/07 02:08:03;;;;;;;8.53;6.23;;;;;;;3.17;45.35;97610.94;6128675;28;20237;-89
2023/04/07 02:11:11;;;;;;;9.50;6.20;;;;;;;3.03;45.87;97591.63;6132427;28;20625;-88
2023/04/07 02:14:16;;;;;;;9.77;6.43;;;;;;;3.04;45.34;97588.00;6141083;28;20593;-88
2023/04/07 02:17:33;;;;;;;10.43;6.73;;;;;;;3.82;45.42;97681.44;6131146;28;20246;-88
2023/04/07 02:20:36;;;;;;;7.53;6.13;;;;;;;3.03;45.51;97583.75;6145505;28;20245;-88
2023/04/07 02:23:38;;;;;;;10.73;6.60;;;;;;;2.74;45.27;97508.53;6122528;28;20340;-87
2023/04/07 02:26:42;;;;;;;8.37;6.17;;;;;;;3.47;45.75;97638.59;6130682;28;20234;-89
2023/04/07 02:29:44;;;;;;;7.30;5.97;;;;;;;2.92;46.84;97565.88;6115912;28;20729;-89
2023/04/07 02:32:46;;;;;;;8.20;6.03;;;;;;;2.96;47.37;97572.38;6131060;28;20242;-89
2023/04/07 02:35:48;;;;;;;8.90;7.10;;;;;;;2.56;45.04;97480.97;6115224;28;20577;-88
2023/04/07 02:38:50;;;;;;;8.80;6.93;;;;;;;2.16;45.63;97403.72;6130271;28;20238;-88
2023/04/07 02:41:52;;;;;;;9.27;7.13;;;;;;;3.52;44.98;97614.28;6131469;28;20713;-89
2023/04/07 02:44:54;;;;;;;9.00;6.50;;;;;;;2.41;45.64;97451.34;6131215;28;20313;-89
2023/04/07 02:47:56;;;;;;;11.93;7.37;;;;;;;3.84;45.20;97657.53;6139036;28;20737;-88
2023/04/07 02:50:58;;;;;;;8.47;6.57;;;;;;;3.52;44.79;97611.66;6115701;28;20243;-88
2023/04/07 02:54:00;;;;;;;9.27;6.63;;;;;;;1.99;45.77;97400.63;6115271;28;20234;-88
2023/04/07 02:57:02;;;;;;;9.53;6.30;;;;;;;3.04;47.13;97569.56;6130203;28;20393;-89
2023/04/07 03:00:05;;;;;;;11.60;6.87;;;;;;;3.58;46.92;97656.44;6100368;28;20527;-88
2023/04/07 03:03:30;;;;;;;8.53;6.40;;;;;;;2.88;47.02;97554.13;6123271;28;20609;-88
2023/04/07 03:06:40;;;;;;;10.63;6.50;;;;;;;2.62;46.77;97523.25;6132013;28;20230;-89
2023/04/07 03:09:48;;;;;;;9.60;6.30;;;;;;;1.79;47.49;97402.31;6130121;28;20300;-88
2023/04/07 03:12:52;;;;;;;9.07;7.03;;;;;;;2.70;48.73;97554.63;6127346;28;20233;-89
2023/04/07 03:15:55;;;;;;;10.83;6.60;;;;;;;2.65;50.47;97571.00;6129950;28;20627;-88
2023/04/07 03:18:59;;;;;;;7.57;6.30;;;;;;;2.61;48.77;97542.66;6115167;28;20256;-89
2023/04/07 03:22:02;;;;;;;10.27;6.93;;;;;;;3.16;47.89;97646.97;6130147;28;20238;-88
2023/04/07 03:25:09;;;;;;;9.90;6.33;;;;;;;2.86;48.90;97620.09;6130375;28;20243;-88
2023/04/07 03:28:11;;;;;;;9.00;6.17;;;;;;;2.43;49.49;97551.88;6128595;28;20226;-88
2023/04/07 03:31:15;;;;;;;10.00;6.77;;;;;;;3.03;48.12;97636.38;6130571;28;20246;-88
2023/04/07 03:34:18;;;;;;;7.77;6.10;;;;;;;1.50;48.41;97414.63;6115084;28;20240;-88
2023/04/07 03:37:20;;;;;;;7.97;6.77;;;;;;;2.44;48.06;97556.13;6130340;28;20736;-88
2023/04/07 03:40:22;;;;;;;7.87;6.30;;;;;;;2.29;48.72;97531.75;6122370;28;20241;-88
2023/04/07 03:43:25;;;;;;;8.43;6.30;;;;;;;2.27;48.96;97545.09;6123026;28;20234;-88
2023/04/07 03:46:27;;;;;;;8.77;6.00;;;;;;;2.54;50.35;97608.38;6107873;28;20247;-88
2023/04/07 03:49:30;;;;;;;8.47;6.50;;;;;;;2.41;50.54;97597.75;6134316;28;20285;-89
2023/04/07 03:52:36;;;;;;;8.63;6.73;;;;;;;1.78;51.76;97530.19;6129730;28;20310;-88
2023/04/07 03:55:47;;;;;;;12.73;6.93;;;;;;;1.87;51.53;97543.16;6123477;28;20244;-88
2023/04/07 03:59:13;;;;;;;9.33;6.43;;;;;;;2.02;52.98;97593.81;6150900;28;20721;-88
2023/04/07 04:02:26;;;;;;;8.43;6.37;;;;;;;2.02;52.58;97596.44;6124453;28;20237;-88
2023/04/07 04:05:29;;;;;;;8.03;6.83;;;;;;;0.43;51.39;97336.00;6137544;28;20234;-88
2023/04/07 04:08:32;;;;;;;7.70;6.33;;;;;;;1.62;52.15;97512.06;6117777;28;20236;-88
2023/04/07 04:11:34;;;;;;;10.07;6.00;;;;;;;1.76;51.54;97536.63;6137554;28;20395;-88
2023/04/07 04:14:38;;;;;;;10.33;6.37;;;;;;;2.62;50.95;97652.13;6123277;28;20238;-89
2023/04/07 04:17:42;;;;;;;8.37;6.53;;;;;;;1.61;50.68;97483.38;6146237;28;20301;-88
2023/04/07 04:20:46;;;;;;;8.13;6.00;;;;;;;2.27;51.65;97597.66;6137606;28;20248;-88
2023/04/07 04:23:49;;;;;;;8.87;7.40;;;;;;;2.21;50.25;97585.28;6122039;28;20243;-89
2023/04/07 04:26:51;;;;;;;9.93;6.47;;;;;;;2.24;50.72;97587.53;6136233;28;20243;-88
2023/04/07 04:29:53;;;;;;;9.03;7.10;;;;;;;0.70;50.10;97318.75;6154255;28;20234;-88
2023/04/07 04:33:06;;;;;;;8.53;6.43;;;;;;;1.57;50.06;97443.56;6133349;28;20729;-88
2023/04/07 04:36:17;;;;;;;9.00;6.87;;;;;;;2.55;48.41;97581.06;6137205;28;20218;-89
2023/04/07 04:39:20;;;;;;;10.00;7.00;;;;;;;1.48;49.38;97403.53;6137772;28;20210;-89
2023/04/07 04:42:25;;;;;;;7.27;6.23;;;;;;;2.57;49.37;97581.69;6122054;28;20230;-88
2023/04/07 04:45:28;;;;;;;8.53;6.83;;;;;;;2.61;50.07;97609.22;6136464;28;20226;-88
2023/04/07 04:48:30;;;;;;;11.37;6.57;;;;;;;3.04;49.49;97638.00;6134431;28;20239;-89
2023/04/07 04:51:32;;;;;;;10.70;7.40;;;;;;;2.70;49.61;97592.28;6118182;28;20749;-89
2023/04/07 04:54:42;;;;;;;9.83;6.90;;;;;;;1.90;50.15;97474.50;6118458;28;20241;-89
2023/04/07 04:57:45;;;;;;;12.70;7.23;;;;;;;1.52;48.60;97430.19;6135133;28;20609;-88
2023/04/07 05:00:57;;;;;;;8.73;6.23;;;;;;;3.12;49.27;97637.03;6135600;28;20246;-88
2023/04/07 05:04:09;;;;;;;12.00;7.07;;;;;;;2.91;48.09;97612.44;6120725;28;20731;-88
2023/04/07 05:07:16;;;;;;;11.30;6.70;;;;;;;2.86;47.97;97591.16;6130672;28;20238;-89
2023/04/07 05:10:18;;;;;;;8.73;6.97;;;;;;;3.33;46.31;97608.75;6134327;28;20285;-87
2023/04/07 05:13:24;;;;;;;10.13;6.90;;;;;;;2.83;47.13;97552.88;6135323;28;20652;-88
2023/04/07 05:16:28;;;;;;;9.90;6.77;;;;;;;1.89;46.13;97387.03;6116600;28;20240;-89
2023/04/07 05:19:30;;;;;;;8.33;6.87;;;;;;;3.00;46.33;97549.91;6134710;28;20654;-88
2023/04/07 05:22:38;;;;;;;10.77;7.07;;;;;;;3.33;46.86;97585.06;6129286;28;20241;-89
2023/04/07 05:25:42;;;;;;;8.50;6.80;;;;;;;3.02;47.18;97545.28;6126576;28;20271;-88
2023/04/07 05:28:45;;;;;;;10.37;6.53;;;;;;;1.91;46.40;97347.41;6149458;28;20234;-88
2023/04/07 05:31:52;;;;;;;10.13;6.83;;;;;;;3.25;45.81;97529.13;6159588;28;20248;-88
2023/04/07 05:34:56;;;;;;;9.83;6.93;;;;;;;3.02;45.68;97511.06;6150573;28;20220;-89
2023/04/07 05:38:03;;;;;;;8.77;6.47;;;;;;;3.11;46.17;97512.53;6162085;28;20211;-89
2023/04/07 05:41:05;;;;;;;8.37;6.57;;;;;;;3.13;45.07;97484.16;6150722;28;20238;-88
2023/04/07 05:44:09;;;;;;;8.27;6.50;;;;;;;2.92;44.79;97466.72;6136249;28;20242;-88
2023/04/07 05:47:16;;;;;;;9.23;7.10;;;;;;;3.48;44.12;97513.00;6134331;28;20327;-89
2023/04/07 05:50:19;;;;;;;8.10;6.23;;;;;;;4.03;44.82;97598.75;6119301;28;20284;-89
2023/04/07 05:53:23;;;;;;;11.60;7.13;;;;;;;4.25;43.66;97593.31;6117810;28;20329;-88
2023/04/07 05:56:25;;;;;;;10.07;7.17;;;;;;;2.52;44.57;97337.75;6115413;28;20230;-88
2023/04/07 05:59:28;;;;;;;11.07;7.13;;;;;;;3.97;43.54;97560.03;6132138;28;20745;-88
2023/04/07 06:02:31;;;;;;;9.37;7.30;;;;;;;3.83;44.73;97551.31;6132124;28;20241;-88
2023/04/07 06:05:34;;;;;;;9.60;6.03;;;;;;;4.59;44.83;97652.94;6129230;28;20293;-89
2023/04/07 06:08:36;;;;;;;8.57;6.17;;;;;;;3.34;43.82;97467.41;6121842;28;20249;-89
2023/04/07 06:11:38;;;;;;;7.80;6.20;;;;;;;4.14;43.83;97563.09;6116323;28;20242;-89
2023/04/07 06:14:40;;;;;;;12.77;6.93;;;;;;;4.70;43.80;97657.59;6131599;28;20238;-88
2023/04/07 06:17:44;;;;;;;9.90;7.10;;;;;;;4.06;43.21;97550.13;6128264;28;20238;-88
2023/04/07 06:20:46;;;;;;;8.90;6.87;;;;;;;4.32;42.84;97584.38;6131254;28;20851;-88
2023/04/07 06:23:48;;;;;;;9.97;6.33;;;;;;;4.65;44.07;97655.56;6130867;28;20264;-89
2023/04/07 06:26:51;;;;;;;8.30;6.67;;;;;;;3.75;44.66;97524.38;6131250;28;20383;-89
2023/04/07 06:29:55;;;;;;;8.30;6.73;;;;;;;4.26;44.32;97602.84;6125023;28;20245;-89
2023/04/07 06:32:58;;;;;;;8.63;6.73;;;;;;;3.89;44.62;97544.44;6115550;28;20329;-88
2023/04/07 06:36:00;;;;;;;9.27;6.60;;;;;;;4.14;44.39;97594.75;6115824;28;20589;-88
2023/04/07 06:39:03;;;;;;;9.60;6.37;;;;;;;4.05;43.02;97567.75;6123020;28;20234;-89
2023/04/07 06:42:05;;;;;;;10.30;7.00;;;;;;;4.05;42.82;97553.78;6115446;28;20210;-88
2023/04/07 06:45:12;;;;;;;8.77;6.23;;;;;;;4.36;42.86;97577.69;6131000;28;20218;-88
2023/04/07 06:48:14;;;;;;;9.30;6.87;;;;;;;4.68;43.62;97654.38;6129430;28;20723;-89
2023/04/07 06:51:16;;;;;;;8.43;5.90;;;;;;;4.23;43.72;97593.50;6130053;28;20293;-88
2023/04/07 06:54:18;;;;;;;9.33;6.20;;;;;;;4.35;43.79;97601.63;6123068;28;20231;-89
2023/04/07 06:57:20;;;;;;;8.53;6.47;;;;;;;4.36;44.19;97614.59;6129638;28;20234;-88
2023/04/07 07:00:23;;;;;;;9.30;6.67;;;;;;;4.09;43.93;97555.81;6114843;28;20245;-88
2023/04/07 07:03:26;;;;;;;11.83;6.17;;;;;;;4.91;43.58;97649.44;6126321;28;20250;-88
2023/04/07 07:06:30;;;;;;;9.63;6.50;;;;;;;4.22;43.10;97551.53;6129867;28;20772;-88
2023/04/07 07:09:32;;;;;;;9.60;6.30;;;;;;;4.21;44.41;97569.16;6130523;28;20552;-89
2023/04/07 07:12:34;;;;;;;9.10;6.53;;;;;;;3.95;43.66;97498.84;6129122;28;20778;-89
2023/04/07 07:15:36;;;;;;;9.23;7.33;;;;;;;4.51;43.27;97603.03;6130882;28;20313;-88
2023/04/07 07:18:39;;;;;;;10.80;7.17;;;;;;;4.37;41.96;97538.94;6130057;28;20729;-88
2023/04/07 07:21:41;;;;;;;11.27;6.97;;;;;;;4.15;43.05;97512.00;6146235;28;20238;-88
2023/04/07 07:24:43;;;;;;;10.20;7.07;;;;;;;4.03;43.86;97509.16;6131054;28;20237;-89
2023/04/07 07:27:45;;;;;;;9.57;6.07;;;;;;;4.39;43.87;97545.63;6146635;28;20313;-88
2023/04/07 07:30:47;;;;;;;8.03;6.40;;;;;;;3.97;43.71;97488.88;6146073;28;20222;-89
2023/04/07 07:33:50;;;;;;;9.60;6.37;;;;;;;4.53;44.67;97582.50;6126336;28;20226;-89
2023/04/07 07:36:52;;;;;;;8.87;6.57;;;;;;;5.04;43.21;97630.13;6130738;28;20592;-89
2023/04/07 07:39:55;;;;;;;9.47;7.00;;;;;;;5.25;43.21;97657.28;6129899;28;20381;-89
2023/04/07 07:42:57;;;;;;;9.80;6.53;;;;;;;5.04;42.15;97613.47;6122826;28;20830;-88
2023/04/07 07:45:59;;;;;;;10.27;7.00;;;;;;;5.02;42.10;97613.66;6114520;28;20317;-89
2023/04/07 07:49:01;;;;;;;10.27;7.23;;;;;;;3.90;42.70;97474.91;6122496;28;20246;-88
2023/04/07 07:52:03;;;;;;;8.47;6.60;;;;;;;4.79;42.92;97587.75;6130295;28;20579;-88
2023/04/07 07:55:05;;;;;;;14.33;7.17;;;;;;;5.55;41.99;97668.94;6145708;28;20243;-88
2023/04/07 07:58:07;;;;;;;6.90;5.87;;;;;;;5.07;42.58;97597.19;6129545;28;20612;-88
2023/04/07 08:01:09;;;;;;;10.77;6.57;;;;;;;4.85;42.48;97583.47;6114346;29;20738;-88
2023/04/07 08:04:11;;;;;;;7.33;5.97;;;;;;;4.45;42.42;97490.44;6131604;28;20295;-88
2023/04/07 08:07:15;;;;;;;9.03;6.40;;;;;;;4.45;41.97;97493.88;6119351;28;20726;-89
2023/04/07 08:10:19;;;;;;;10.20;6.60;;;;;;;5.11;41.67;97587.84;6140793;28;20257;-89
2023/04/07 08:13:21;;;;;;;8.27;6.17;;;;;;;5.40;41.86;97612.91;6126411;28;20238;-88
2023/04/07 08:16:23;;;;;;;9.50;6.63;;;;;;;5.63;41.44;97636.19;6113424;28;20251;-88
2023/04/07 08:19:25;;;;;;;10.87;6.67;;;;;;;5.74;40.74;97635.53;6146224;28;20227;-89
2023/04/07 08:22:28;;;;;;;11.00;6.70;;;;;;;5.04;41.51;97502.59;6134099;28;20239;-89
2023/04/07 08:25:31;;;;;;;9.40;6.30;;;;;;;4.78;41.21;97432.25;6130143;28;20628;-88
2023/04/07 08:28:33;;;;;;;9.00;6.20;;;;;;;6.14;41.30;97630.00;6133816;28;20249;-87
2023/04/07 08:31:35;;;;;;;11.53;7.00;;;;;;;6.60;39.66;97665.88;6118099;28;20239;-88
2023/04/07 08:34:37;;;;;;;8.83;7.00;;;;;;;6.31;40.78;97617.88;6117655;28;20243;-89
2023/04/07 08:37:42;;;;;;;9.20;6.47;;;;;;;6.86;39.03;97660.38;6134756;28;20245;-89
2023/04/07 08:40:44;;;;;;;8.63;6.83;;;;;;;6.34;38.43;97601.56;6136036;28;20574;-89
2023/04/07 08:43:48;;;;;;;8.07;6.27;;;;;;;6.79;38.92;97666.72;6129192;28;20232;-88
2023/04/07 08:46:56;;;;;;;7.53;6.70;;;;;;;5.95;39.08;97547.97;6136570;28;20232;-88
2023/04/07 08:50:04;;;;;;;9.37;7.37;;;;;;;6.87;39.78;97658.53;6124693;28;21772;-89
2023/04/07 08:53:10;;;;;;;10.53;6.27;;;;;;;6.82;39.11;97672.41;6133903;28;20232;-89
2023/04/07 08:56:14;;;;;;;8.97;7.37;;;;;;;6.31;39.09;97588.78;6111014;28;20236;-89
2023/04/07 08:59:24;;;;;;;9.30;6.57;;;;;;;6.28;40.19;97573.34;6150284;28;20231;-89
2023/04/07 09:02:27;;;;;;;7.47;6.37;;;;;;;6.56;38.01;97561.50;6130904;28;20228;-88
2023/04/07 09:05:29;;;;;;;9.53;6.83;;;;;;;6.03;39.22;97437.69;6133375;28;20651;-88
2023/04/07 09:08:31;;;;;;;8.83;6.70;;;;;;;7.12;37.09;97589.59;6131752;28;20242;-89
2023/04/07 09:11:36;;;;;;;7.80;6.43;;;;;;;6.37;37.55;97468.84;6133062;28;20740;-89
2023/04/07 09:14:38;;;;;;;7.50;6.70;;;;;;;7.72;38.15;97630.22;6143342;28;20374;-89
2023/04/07 09:17:40;;;;;;;8.93;6.73;;;;;;;7.80;37.11;97646.88;6158143;28;20294;-89
2023/04/07 09:21:00;;;;;;;8.93;6.43;;;;;;;7.76;37.21;97610.19;6166073;28;20463;-89
2023/04/07 09:24:24;;;;;;;8.77;6.20;;;;;;;7.72;36.14;97576.38;6162131;28;20222;-90
2023/04/07 09:27:27;;;;;;;14.20;7.00;;;;;;;8.17;36.36;97629.78;6153226;28;20785;-88
2023/04/07 09:30:33;;;;;;;9.07;6.43;;;;;;;7.33;35.69;97511.47;6136057;28;20240;-89
2023/04/07 09:33:35;;;;;;;11.87;6.50;;;;;;;7.63;35.72;97559.16;6125935;28;20341;-89
2023/04/07 09:36:41;;;;;;;10.50;5.90;;;;;;;6.32;35.38;97376.13;6134457;28;20752;-88
2023/04/07 09:39:52;;;;;;;9.60;5.97;;;;;;;7.66;35.50;97553.44;6132098;28;20234;-89
2023/04/07 09:42:54;;;;;;;9.17;6.03;;;;;;;8.25;35.30;97640.06;6134013;28;20378;-90
2023/04/07 09:46:28;;;;;;;8.50;6.57;;;;;;;8.00;34.61;97573.13;6142408;28;20240;-88
2023/04/07 09:49:31;;;;;;;8.57;6.43;;;;;;;7.80;34.35;97580.56;6083332;29;20770;-90
2023/04/07 09:52:53;;;;;;;9.20;7.33;;;;;;;7.15;34.84;97491.16;6068623;29;20653;-88
2023/04/07 09:55:55;;;;;;;9.90;6.13;;;;;;;7.52;34.36;97538.75;6053532;29;20287;-88
2023/04/07 09:58:58;;;;;;;9.00;6.80;;;;;;;7.50;34.01;97553.03;6082751;29;20349;-88
2023/04/07 10:02:01;;;;;;;8.43;6.37;;;;;;;7.24;35.19;97511.81;6051502;29;20336;-89
2023/04/07 10:05:04;;;;;;;8.90;6.80;;;;;;;7.86;34.52;97614.94;6052161;29;20724;-89
2023/04/07 10:08:07;;;;;;;10.00;7.27;;;;;;;7.12;34.84;97496.88;6066060;29;20234;-88
2023/04/07 10:11:10;;;;;;;10.13;7.27;;;;;;;7.42;34.64;97540.09;6067104;28;20228;-88
2023/04/07 10:14:12;;;;;;;10.77;6.90;;;;;;;7.42;35.86;97532.13;6067107;29;20328;-89
2023/04/07 10:17:18;;;;;;;8.83;6.20;;;;;;;8.09;34.74;97616.88;6083379;28;20326;-88
2023/04/07 10:20:21;;;;;;;11.17;7.27;;;;;;;7.80;35.06;97567.31;6082607;29;20230;-88
2023/04/07 10:23:45;;;;;;;10.00;7.13;;;;;;;8.14;35.36;97621.50;6067626;29;20487;-89
2023/04/07 10:26:58;;;;;;;9.93;6.80;;;;;;;8.02;34.31;97616.94;6131215;28;20235;-89
2023/04/07 10:30:03;;;;;;;8.77;6.80;;;;;;;7.28;35.27;97528.03;6116098;28;20659;-88
2023/04/07 10:33:05;;;;;;;7.93;6.47;;;;;;;7.54;34.68;97574.59;6131710;28;20580;-88
2023/04/07 10:36:07;;;;;;;9.30;6.97;;;;;;;7.72;34.62;97614.31;6099649;28;20663;-89
2023/04/07 10:39:09;;;;;;;11.33;7.53;;;;;;;7.88;36.30;97620.00;6139314;28;20217;-89
2023/04/07 10:42:36;;;;;;;11.93;7.97;;;;;;;7.96;34.65;97614.41;6122520;28;20609;-88
2023/04/07 10:45:47;;;;;;;10.20;7.50;;;;;;;8.00;35.01;97604.94;6129092;28;20661;-89
2023/04/07 10:49:09;;;;;;;9.87;7.30;;;;;;;7.44;36.50;97500.94;6128297;28;20713;-88
2023/04/07 10:52:11;;;;;;;8.77;6.97;;;;;;;8.22;34.87;97607.88;6127688;28;20233;-88
2023/04/07 10:55:39;;;;;;;8.83;6.87;;;;;;;7.93;34.96;97575.88;6115074;28;20693;-88
2023/04/07 10:58:41;;;;;;;11.20;7.60;;;;;;;7.63;35.03;97514.91;6142494;28;20322;-89
2023/04/07 11:01:43;;;;;;;10.20;7.50;;;;;;;7.31;36.47;97509.06;6130078;28;20243;-89
2023/04/07 11:04:45;;;;;;;10.20;7.57;;;;;;;7.52;35.97;97559.94;6130935;28;20607;-89
2023/04/07 11:07:50;;;;;;;8.40;6.83;;;;;;;7.04;36.12;97444.22;6112845;28;20269;-89
2023/04/07 11:10:52;;;;;;;8.73;7.10;;;;;;;6.97;36.00;97439.81;6116074;28;20239;-89
2023/04/07 11:13:54;;;;;;;10.53;6.93;;;;;;;7.54;38.40;97528.72;6114969;28;20782;-89
2023/04/07 11:16:58;;;;;;;10.43;7.27;;;;;;;7.26;36.67;97493.03;6130944;28;20274;-90
2023/04/07 11:20:00;;;;;;;11.03;7.10;;;;;;;8.08;36.50;97596.69;6131044;28;20324;-88
2023/04/07 11:23:02;;;;;;;9.77;7.27;;;;;;;7.20;36.11;97454.19;6129491;28;20325;-89
2023/04/07 11:26:04;;;;;;;8.93;6.63;;;;;;;7.77;36.27;97552.66;6130395;28;20312;-89
2023/04/07 11:29:07;;;;;;;10.67;6.87;;;;;;;7.48;36.72;97493.31;6126270;29;20273;-89
2023/04/07 11:32:11;;;;;;;9.80;6.80;;;;;;;8.05;36.21;97588.34;6142290;28;20607;-89
2023/04/07 11:35:15;;;;;;;8.70;6.73;;;;;;;7.79;37.16;97545.28;6141563;28;20351;-89
2023/04/07 11:38:18;;;;;;;12.77;7.63;;;;;;;7.56;35.52;97503.59;6114366;28;20325;-90
2023/04/07 11:41:20;;;;;;;9.43;6.77;;;;;;;8.20;35.95;97594.03;6129459;28;20237;-89
2023/04/07 11:44:25;;;;;;;9.43;6.70;;;;;;;7.06;36.06;97428.94;6125836;28;20314;-89
2023/04/07 11:47:37;;;;;;;9.60;7.47;;;;;;;7.74;35.63;97516.81;6129516;28;20234;-88
2023/04/07 11:50:41;;;;;;;10.73;7.10;;;;;;;8.38;35.34;97591.31;6128769;28;20737;-89
2023/04/07 11:53:44;;;;;;;8.47;6.33;;;;;;;8.37;35.92;97594.19;6129026;28;20740;-89
2023/04/07 11:56:47;;;;;;;9.87;7.20;;;;;;;8.46;35.82;97611.41;6110898;28;20258;-89
2023/04/07 11:59:49;;;;;;;9.50;6.97;;;;;;;8.07;34.59;97514.66;6135502;28;20240;-89
2023/04/07 12:02:52;;;;;;;9.43;7.10;;;;;;;8.04;34.97;97500.00;6118928;28;20321;-89
2023/04/07 12:05:54;;;;;;;8.80;6.90;;;;;;;8.47;34.85;97549.28;6134229;28;20338;-89
2023/04/07 12:08:57;;;;;;;9.60;7.37;;;;;;;8.66;34.20;97555.28;6133076;28;20251;-89
2023/04/07 12:11:59;;;;;;;11.03;7.10;;;;;;;7.84;34.85;97433.22;6133922;28;20226;-88
2023/04/07 12:15:01;;;;;;;9.33;7.03;;;;;;;8.12;34.96;97498.84;6142364;28;20265;-89
2023/04/07 12:18:03;;;;;;;10.23;7.70;;;;;;;8.05;35.38;97469.78;6149892;28;20210;-89
2023/04/07 12:21:06;;;;;;;9.80;7.50;;;;;;;8.52;34.64;97558.22;6129893;28;20226;-88
2023/04/07 12:24:08;;;;;;;9.93;7.17;;;;;;;8.61;34.80;97555.19;6132875;28;20366;-89
2023/04/07 12:27:10;;;;;;;11.57;7.80;;;;;;;8.28;34.61;97471.63;6116975;28;20706;-88
2023/04/07 12:30:12;;;;;;;11.33;7.40;;;;;;;7.32;34.49;97343.75;6099114;28;20305;-89
2023/04/07 12:33:15;;;;;;;10.73;7.90;;;;;;;8.51;35.72;97489.41;6117740;28;20224;-89
2023/04/07 12:36:17;;;;;;;9.90;6.93;;;;;;;8.68;35.12;97510.75;6118337;28;20225;-90
2023/04/07 12:39:20;;;;;;;11.20;8.53;;;;;;;8.19;35.72;97402.19;6119021;28;20589;-89
2023/04/07 12:42:22;;;;;;;10.63;8.03;;;;;;;9.32;34.03;97579.78;6133779;28;20715;-89
2023/04/07 12:45:24;;;;;;;12.30;7.90;;;;;;;8.67;34.67;97496.66;6126145;28;20305;-88
2023/04/07 12:48:26;;;;;;;10.33;7.70;;;;;;;8.76;34.22;97511.16;6130073;28;20281;-89
2023/04/07 12:51:29;;;;;;;9.87;7.07;;;;;;;9.08;35.15;97526.69;6136076;28;20316;-90
2023/04/07 12:54:32;;;;;;;9.83;7.57;;;;;;;9.23;33.89;97539.47;6112822;28;20247;-89
2023/04/07 12:57:34;;;;;;;10.40;7.87;;;;;;;9.14;34.11;97503.69;6135650;28;20237;-89
2023/04/07 13:00:36;;;;;;;9.77;7.83;;;;;;;9.70;34.00;97574.66;6135156;28;20296;-89
2023/04/07 13:03:38;;;;;;;10.57;7.70;;;;;;;8.45;35.53;97381.50;6118737;28;20596;-89
2023/04/07 13:06:41;;;;;;;10.53;7.87;;;;;;;9.29;34.89;97530.56;6131499;28;20277;-89
2023/04/07 13:09:43;;;;;;;11.43;8.03;;;;;;;7.97;33.86;97353.41;6118298;28;20227;-89
2023/04/07 13:12:45;;;;;;;10.27;8.50;;;;;;;9.22;34.30;97521.94;6145486;28;20227;-89
2023/04/07 13:15:47;;;;;;;10.30;7.80;;;;;;;8.25;35.02;97373.91;6132540;28;20618;-89
2023/04/07 13:18:49;;;;;;;8.93;7.00;;;;;;;8.58;34.83;97431.69;6133100;28;20239;-89
2023/04/07 13:21:51;;;;;;;10.60;7.70;;;;;;;9.64;34.10;97574.81;6118779;28;20366;-90
2023/04/07 13:24:53;;;;;;;11.60;7.60;;;;;;;9.29;34.24;97542.00;6134465;28;20238;-89
2023/04/07 13:27:55;;;;;;;9.07;7.57;;;;;;;9.19;34.01;97525.84;6134050;28;20235;-89
2023/04/07 13:30:57;;;;;;;10.03;7.43;;;;;;;8.86;34.59;97480.53;6117608;28;20235;-89
2023/04/07 13:33:59;;;;;;;9.47;7.43;;;;;;;9.16;35.78;97526.34;6147730;28;20214;-88
2023/04/07 13:37:05;;;;;;;8.57;7.53;;;;;;;8.74;34.48;97485.91;6165538;28;20402;-89
2023/04/07 13:40:07;;;;;;;11.13;7.40;;;;;;;8.49;35.38;97456.97;6144811;28;20210;-89
2023/04/07 13:43:11;;;;;;;9.80;8.00;;;;;;;8.65;35.24;97477.47;6195588;28;20211;-89
2023/04/07 13:46:17;;;;;;;8.67;7.57;;;;;;;8.08;35.54;97424.22;6131930;28;20258;-89
2023/04/07 13:49:28;;;;;;;11.53;8.20;;;;;;;8.54;36.49;97494.25;6101283;28;20238;-89
2023/04/07 13:52:33;;;;;;;13.50;8.03;;;;;;;7.59;35.93;97328.22;6136163;28;20755;-89
2023/04/07 13:55:36;;;;;;;9.87;7.33;;;;;;;7.54;36.09;97319.31;6134654;28;20242;-89
2023/04/07 13:58:38;;;;;;;10.53;7.80;;;;;;;8.43;35.97;97449.94;6133233;28;20328;-89
2023/04/07 14:01:41;;;;;;;9.57;7.27;;;;;;;8.64;37.09;97473.22;6148127;28;20241;-90
2023/04/07 14:04:43;;;;;;;10.40;7.20;;;;;;;8.57;35.98;97453.13;6136408;28;20238;-88
2023/04/07 14:07:46;;;;;;;11.13;7.37;;;;;;;8.94;35.29;97531.47;6122921;28;20607;-90
2023/04/07 14:10:48;;;;;;;8.77;7.50;;;;;;;7.91;35.82;97363.09;6116772;28;20385;-89
2023/04/07 14:13:51;;;;;;;10.03;7.77;;;;;;;9.18;35.84;97555.34;6116050;28;20687;-90
2023/04/07 14:16:53;;;;;;;10.90;7.57;;;;;;;8.72;35.41;97464.91;6131032;28;20223;-89
2023/04/07 14:19:55;;;;;;;9.70;7.20;;;;;;;8.80;35.57;97474.34;6116097;28;20313;-88
2023/04/07 14:22:57;;;;;;;8.00;6.87;;;;;;;8.49;35.70;97414.50;6115927;28;20723;-89
2023/04/07 14:26:00;;;;;;;10.20;7.60;;;;;;;9.37;35.15;97546.13;6128475;28;20751;-89
2023/04/07 14:29:02;;;;;;;9.33;7.43;;;;;;;9.08;35.18;97507.28;6123805;28;20227;-89
2023/04/07 14:32:04;;;;;;;7.87;6.20;;;;;;;8.98;35.53;97500.75;6115651;28;20326;-89
2023/04/07 14:35:07;;;;;;;9.90;7.10;;;;;;;9.34;35.77;97512.03;6131220;28;20243;-90